sensor_id;sensor_type;location;lat;lon;timestamp;pressure;altitude;pressure_sealevel;temperature;humidity
22930;BME280;11630;42.660;23.292;2024-01-30T00:00:08;67779.84;;;2.12;82.71
22930;BME280;11630;42.660;23.292;2024-01-30T00:02:40;67771.27;;;2.09;81.89
22930;BME280;11630;42.660;23.292;2024-01-30T00:05:10;67721.03;;;1.58;85.54
22930;BME280;11630;42.660;23.292;2024-01-30T00:07:41;67711.05;;;1.48;86.50
22930;BME280;11630;42.660;23.292;2024-01-30T00:10:11;67711.09;;;1.52;86.24
22930;BME280;11630;42.660;23.292;2024-01-30T00:12:42;67705.70;;;1.48;87.12
22930;BME280;11630;42.660;23.292;2024-01-30T00:15:13;67712.09;;;1.44;87.65
22930;BME280;11630;42.660;23.292;2024-01-30T00:17:45;67715.11;;;1.55;86.72
22930;BME280;11630;42.660;23.292;2024-01-30T00:20:21;67723.49;;;1.64;85.36
22930;BME280;11630;42.660;23.292;2024-01-30T00:22:52;67709.20;;;1.50;86.08
22930;BME280;11630;42.660;23.292;2024-01-30T00:25:23;67726.42;;;1.63;86.31
22930;BME280;11630;42.660;23.292;2024-01-30T00:27:54;67731.28;;;1.67;85.56
22930;BME280;11630;42.660;23.292;2024-01-30T00:30:24;67705.13;;;1.45;84.32
22930;BME280;11630;42.660;23.292;2024-01-30T00:32:58;67663.34;;;1.05;89.00
22930;BME280;11630;42.660;23.292;2024-01-30T00:35:29;67657.17;;;1.03;88.76
22930;BME280;11630;42.660;23.292;2024-01-30T00:38:00;67667.89;;;1.08;88.82
22930;BME280;11630;42.660;23.292;2024-01-30T00:40:31;67692.47;;;1.34;87.78
22930;BME280;11630;42.660;23.292;2024-01-30T00:43:02;67695.98;;;1.39;87.55
22930;BME280;11630;42.660;23.292;2024-01-30T00:45:31;67714.08;;;1.56;85.42
22930;BME280;11630;42.660;23.292;2024-01-30T00:48:06;67707.03;;;1.48;84.41
22930;BME280;11630;42.660;23.292;2024-01-30T00:50:37;67704.33;;;1.43;86.26
22930;BME280;11630;42.660;23.292;2024-01-30T00:53:08;67706.21;;;1.46;85.53
22930;BME280;11630;42.660;23.292;2024-01-30T00:55:39;67701.09;;;1.42;85.43
22930;BME280;11630;42.660;23.292;2024-01-30T00:58:10;67670.88;;;1.12;89.25
22930;BME280;11630;42.660;23.292;2024-01-30T01:00:41;67680.64;;;1.26;90.46
22930;BME280;11630;42.660;23.292;2024-01-30T01:03:12;67699.74;;;1.40;89.50
22930;BME280;11630;42.660;23.292;2024-01-30T01:05:43;67705.45;;;1.49;89.47
22930;BME280;11630;42.660;23.292;2024-01-30T01:08:14;67721.03;;;1.58;87.56
22930;BME280;11630;42.660;23.292;2024-01-30T01:10:44;67712.42;;;1.52;84.69
22930;BME280;11630;42.660;23.292;2024-01-30T01:13:15;67690.86;;;1.33;87.13
22930;BME280;11630;42.660;23.292;2024-01-30T01:15:46;67695.44;;;1.36;88.86
22930;BME280;11630;42.660;23.292;2024-01-30T01:18:17;67715.35;;;1.51;88.38
22930;BME280;11630;42.660;23.292;2024-01-30T01:20:47;67725.38;;;1.64;88.69
22930;BME280;11630;42.660;23.292;2024-01-30T01:23:18;67732.11;;;1.69;85.64
22930;BME280;11630;42.660;23.292;2024-01-30T01:25:49;67695.44;;;1.36;87.11
22930;BME280;11630;42.660;23.292;2024-01-30T01:28:20;67722.39;;;1.60;86.59
22930;BME280;11630;42.660;23.292;2024-01-30T01:30:51;67683.56;;;1.25;88.04
22930;BME280;11630;42.660;23.292;2024-01-30T01:33:22;67668.72;;;1.10;89.46
22930;BME280;11630;42.660;23.292;2024-01-30T01:35:52;67673.59;;;1.17;88.05
22930;BME280;11630;42.660;23.292;2024-01-30T01:38:23;67674.11;;;1.15;87.52
22930;BME280;11630;42.660;23.292;2024-01-30T01:40:54;67688.16;;;1.30;86.12
22930;BME280;11630;42.660;23.292;2024-01-30T01:43:25;67658.50;;;1.03;85.65
22930;BME280;11630;42.660;23.292;2024-01-30T01:45:56;67656.88;;;0.99;86.30
22930;BME280;11630;42.660;23.292;2024-01-30T01:48:27;67690.03;;;1.31;85.98
22930;BME280;11630;42.660;23.292;2024-01-30T01:50:58;67710.81;;;1.51;84.36
22930;BME280;11630;42.660;23.292;2024-01-30T01:53:30;67701.09;;;1.42;82.59
22930;BME280;11630;42.660;23.292;2024-01-30T01:56:01;67728.08;;;1.67;82.61
22930;BME280;11630;42.660;23.292;2024-01-30T01:58:32;67724.55;;;1.62;81.90
22930;BME280;11630;42.660;23.292;2024-01-30T02:01:04;67727.02;;;1.68;82.21
22930;BME280;11630;42.660;23.292;2024-01-30T02:03:35;67727.02;;;1.68;81.84
22930;BME280;11630;42.660;23.292;2024-01-30T02:06:06;67728.31;;;1.63;83.46
22930;BME280;11630;42.660;23.292;2024-01-30T02:08:38;67723.49;;;1.64;83.54
22930;BME280;11630;42.660;23.292;2024-01-30T02:11:09;67728.91;;;1.69;83.53
22930;BME280;11630;42.660;23.292;2024-01-30T02:13:42;67721.59;;;1.58;82.64
22930;BME280;11630;42.660;23.292;2024-01-30T02:16:13;67714.29;;;1.51;83.56
22930;BME280;11630;42.660;23.292;2024-01-30T02:18:44;67730.73;;;1.64;83.83
22930;BME280;11630;42.660;23.292;2024-01-30T02:21:17;67730.77;;;1.69;83.52
22930;BME280;11630;42.660;23.292;2024-01-30T02:23:50;67746.38;;;1.81;82.47
22930;BME280;11630;42.660;23.292;2024-01-30T02:26:21;67748.55;;;1.83;82.41
22930;BME280;11630;42.660;23.292;2024-01-30T02:28:53;67766.92;;;2.03;82.36
22930;BME280;11630;42.660;23.292;2024-01-30T02:31:25;67755.27;;;1.88;83.16
22930;BME280;11630;42.660;23.292;2024-01-30T02:33:56;67749.92;;;1.88;82.40
22930;BME280;11630;42.660;23.292;2024-01-30T02:36:27;67792.81;;;2.24;81.12
22930;BME280;11630;42.660;23.292;2024-01-30T02:38:58;67760.43;;;1.94;80.31
22930;BME280;11630;42.660;23.292;2024-01-30T02:41:28;67766.09;;;2.01;82.06
22930;BME280;11630;42.660;23.292;2024-01-30T02:43:58;67768.78;;;2.03;83.04
22930;BME280;11630;42.660;23.292;2024-01-30T02:46:33;67711.89;;;1.52;84.38
22930;BME280;11630;42.660;23.292;2024-01-30T02:49:05;67726.15;;;1.61;83.78
22930;BME280;11630;42.660;23.292;2024-01-30T02:51:36;67736.16;;;1.74;82.70
22930;BME280;11630;42.660;23.292;2024-01-30T02:54:06;67740.73;;;1.77;81.79
22930;BME280;11630;42.660;23.292;2024-01-30T02:56:37;67701.12;;;1.45;82.49
22930;BME280;11630;42.660;23.292;2024-01-30T02:59:08;67709.45;;;1.49;83.77
22930;BME280;11630;42.660;23.292;2024-01-30T03:01:44;67736.97;;;1.74;82.95
22930;BME280;11630;42.660;23.292;2024-01-30T03:04:15;67731.81;;;1.65;82.31
22930;BME280;11630;42.660;23.292;2024-01-30T03:06:47;67741.56;;;1.79;81.79
22930;BME280;11630;42.660;23.292;2024-01-30T03:09:18;67739.09;;;1.73;81.77
22930;BME280;11630;42.660;23.292;2024-01-30T03:11:49;67745.88;;;1.83;81.91
22930;BME280;11630;42.660;23.292;2024-01-30T03:14:21;67753.98;;;1.91;81.53
22930;BME280;11630;42.660;23.292;2024-01-30T03:16:51;67714.02;;;1.51;81.46
22930;BME280;11630;42.660;23.292;2024-01-30T03:19:22;67720.29;;;1.63;80.52
22930;BME280;11630;42.660;23.292;2024-01-30T03:21:53;67680.06;;;1.23;80.69
22930;BME280;11630;42.660;23.292;2024-01-30T03:24:23;67706.21;;;1.46;81.91
22930;BME280;11630;42.660;23.292;2024-01-30T03:26:54;67697.33;;;1.39;79.63
22930;BME280;11630;42.660;23.292;2024-01-30T03:29:24;67713.76;;;1.52;78.91
22930;BME280;11630;42.660;23.292;2024-01-30T03:31:55;67689.23;;;1.29;80.67
22930;BME280;11630;42.660;23.292;2024-01-30T03:34:26;67681.70;;;1.24;80.60
22930;BME280;11630;42.660;23.292;2024-01-30T03:36:56;67710.55;;;1.52;80.46
22930;BME280;11630;42.660;23.292;2024-01-30T03:39:26;67710.28;;;1.51;80.51
22930;BME280;11630;42.660;23.292;2024-01-30T03:41:57;67701.08;;;1.40;80.37
22930;BME280;11630;42.660;23.292;2024-01-30T03:44:27;67703.24;;;1.42;80.28
22930;BME280;11630;42.660;23.292;2024-01-30T03:46:59;67675.19;;;1.16;80.72
22930;BME280;11630;42.660;23.292;2024-01-30T03:49:29;67701.09;;;1.42;79.81
22930;BME280;11630;42.660;23.292;2024-01-30T03:52:00;67699.21;;;1.39;79.38
22930;BME280;11630;42.660;23.292;2024-01-30T03:54:31;67707.61;;;1.51;79.34
22930;BME280;11630;42.660;23.292;2024-01-30T03:57:01;67706.78;;;1.49;78.46
22930;BME280;11630;42.660;23.292;2024-01-30T03:59:32;67729.14;;;1.65;77.94
22930;BME280;11630;42.660;23.292;2024-01-30T04:02:02;67728.35;;;1.68;77.49
22930;BME280;11630;42.660;23.292;2024-01-30T04:04:33;67752.05;;;1.85;76.62
22930;BME280;11630;42.660;23.292;2024-01-30T04:07:03;67736.73;;;1.77;76.13
22930;BME280;11630;42.660;23.292;2024-01-30T04:09:34;67744.50;;;1.78;76.75
22930;BME280;11630;42.660;23.292;2024-01-30T04:12:05;67725.89;;;1.62;76.34
22930;BME280;11630;42.660;23.292;2024-01-30T04:14:37;67676.27;;;1.17;76.92
22930;BME280;11630;42.660;23.292;2024-01-30T04:17:07;67701.08;;;1.40;77.40
22930;BME280;11630;42.660;23.292;2024-01-30T04:19:38;67718.38;;;1.60;76.24
22930;BME280;11630;42.660;23.292;2024-01-30T04:22:09;67692.72;;;1.33;75.87
22930;BME280;11630;42.660;23.292;2024-01-30T04:24:40;67645.05;;;0.93;77.63
22930;BME280;11630;42.660;23.292;2024-01-30T04:27:11;67656.09;;;1.02;77.73
22930;BME280;11630;42.660;23.292;2024-01-30T04:29:42;67607.58;;;0.57;78.34
22930;BME280;11630;42.660;23.292;2024-01-30T04:32:13;67640.73;;;0.89;79.15
22930;BME280;11630;42.660;23.292;2024-01-30T04:34:44;67663.61;;;1.06;78.15
22930;BME280;11630;42.660;23.292;2024-01-30T04:37:15;67671.18;;;1.16;76.71
22930;BME280;11630;42.660;23.292;2024-01-30T04:39:46;67693.02;;;1.35;76.11
22930;BME280;11630;42.660;23.292;2024-01-30T04:42:17;67702.73;;;1.44;76.17
22930;BME280;11630;42.660;23.292;2024-01-30T04:44:49;67727.27;;;1.67;74.99
22930;BME280;11630;42.660;23.292;2024-01-30T04:47:20;67717.83;;;1.57;75.22
22930;BME280;11630;42.660;23.292;2024-01-30T04:49:52;67711.62;;;1.51;75.49
22930;BME280;11630;42.660;23.292;2024-01-30T04:52:23;67693.27;;;1.34;75.94
22930;BME280;11630;42.660;23.292;2024-01-30T04:54:54;67676.78;;;1.15;77.81
22930;BME280;11630;42.660;23.292;2024-01-30T04:57:25;67671.95;;;1.10;77.69
22930;BME280;11630;42.660;23.292;2024-01-30T04:59:56;67668.47;;;1.11;77.99
22930;BME280;11630;42.660;23.292;2024-01-30T05:02:28;67639.09;;;0.85;79.31
22930;BME280;11630;42.660;23.292;2024-01-30T05:04:58;67650.39;;;0.93;79.37
22930;BME280;11630;42.660;23.292;2024-01-30T05:07:29;67624.83;;;0.73;80.66
22930;BME280;11630;42.660;23.292;2024-01-30T05:09:59;67597.06;;;0.46;81.95
22930;BME280;11630;42.660;23.292;2024-01-30T05:12:30;67623.45;;;0.68;81.08
22930;BME280;11630;42.660;23.292;2024-01-30T05:15:00;67657.41;;;0.99;82.29
22930;BME280;11630;42.660;23.292;2024-01-30T05:17:31;67656.06;;;0.99;80.02
22930;BME280;11630;42.660;23.292;2024-01-30T05:20:02;67653.91;;;0.97;78.69
22930;BME280;11630;42.660;23.292;2024-01-30T05:22:31;67666.84;;;1.07;79.01
22930;BME280;11630;42.660;23.292;2024-01-30T05:25:03;67678.98;;;1.22;78.22
22930;BME280;11630;42.660;23.292;2024-01-30T05:27:33;67663.08;;;1.06;79.68
22930;BME280;11630;42.660;23.292;2024-01-30T05:30:05;67677.08;;;1.16;78.98
22930;BME280;11630;42.660;23.292;2024-01-30T05:32:35;67664.46;;;1.11;78.38
22930;BME280;11630;42.660;23.292;2024-01-30T05:35:06;67615.69;;;0.67;80.18
22930;BME280;11630;42.660;23.292;2024-01-30T05:37:36;67623.20;;;0.69;80.05
22930;BME280;11630;42.660;23.292;2024-01-30T05:40:06;67646.66;;;0.92;78.78
22930;BME280;11630;42.660;23.292;2024-01-30T05:42:38;67631.27;;;0.76;78.93
22930;BME280;11630;42.660;23.292;2024-01-30T05:45:09;67648.28;;;0.96;80.02
22930;BME280;11630;42.660;23.292;2024-01-30T05:47:39;67653.14;;;1.00;80.31
22930;BME280;11630;42.660;23.292;2024-01-30T05:50:09;67659.02;;;1.01;79.88
22930;BME280;11630;42.660;23.292;2024-01-30T05:52:40;67676.02;;;1.18;79.67
22930;BME280;11630;42.660;23.292;2024-01-30T05:55:11;67684.38;;;1.24;79.51
22930;BME280;11630;42.660;23.292;2024-01-30T05:57:41;67670.88;;;1.12;78.76
22930;BME280;11630;42.660;23.292;2024-01-30T06:00:13;67639.13;;;0.87;78.98
22930;BME280;11630;42.660;23.292;2024-01-30T06:02:43;67669.04;;;1.14;78.07
22930;BME280;11630;42.660;23.292;2024-01-30T06:05:14;67651.77;;;0.95;79.05
22930;BME280;11630;42.660;23.292;2024-01-30T06:07:44;67659.59;;;1.04;78.65
22930;BME280;11630;42.660;23.292;2024-01-30T06:10:15;67643.98;;;0.92;79.50
22930;BME280;11630;42.660;23.292;2024-01-30T06:12:46;67658.27;;;1.06;77.95
22930;BME280;11630;42.660;23.292;2024-01-30T06:15:17;67587.62;;;0.36;79.42
22930;BME280;11630;42.660;23.292;2024-01-30T06:17:48;67571.78;;;0.25;81.60
22930;BME280;11630;42.660;23.292;2024-01-30T06:20:18;67562.05;;;0.14;83.13
22930;BME280;11630;42.660;23.292;2024-01-30T06:22:49;67535.69;;;-0.08;83.95
22930;BME280;11630;42.660;23.292;2024-01-30T06:25:21;67562.84;;;0.13;84.86
22930;BME280;11630;42.660;23.292;2024-01-30T06:27:52;67575.73;;;0.23;84.17
22930;BME280;11630;42.660;23.292;2024-01-30T06:30:23;67584.17;;;0.37;83.84
22930;BME280;11630;42.660;23.292;2024-01-30T06:32:53;67610.55;;;0.59;82.45
22930;BME280;11630;42.660;23.292;2024-01-30T06:35:24;67616.98;;;0.62;81.60
22930;BME280;11630;42.660;23.292;2024-01-30T06:37:55;67634.78;;;0.81;81.10
22930;BME280;11630;42.660;23.292;2024-01-30T06:40:27;67639.88;;;0.82;80.98
22930;BME280;11630;42.660;23.292;2024-01-30T06:42:57;67636.13;;;0.81;80.85
22930;BME280;11630;42.660;23.292;2024-01-30T06:45:28;67608.11;;;0.55;82.57
22930;BME280;11630;42.660;23.292;2024-01-30T06:47:59;67624.83;;;0.73;82.32
22930;BME280;11630;42.660;23.292;2024-01-30T06:50:30;67667.95;;;1.13;81.93
22930;BME280;11630;42.660;23.292;2024-01-30T06:53:01;67662.00;;;1.05;81.01
22930;BME280;11630;42.660;23.292;2024-01-30T06:55:32;67655.22;;;0.95;81.53
22930;BME280;11630;42.660;23.292;2024-01-30T06:58:03;67634.53;;;0.82;81.27
22930;BME280;11630;42.660;23.292;2024-01-30T07:00:33;67653.13;;;0.98;80.04
22930;BME280;11630;42.660;23.292;2024-01-30T07:03:05;67637.20;;;0.82;77.13
22930;BME280;11630;42.660;23.292;2024-01-30T07:05:35;67680.89;;;1.25;75.56
22930;BME280;11630;42.660;23.292;2024-01-30T07:08:06;67710.22;;;1.46;73.17
22930;BME280;11630;42.660;23.292;2024-01-30T07:10:37;67718.36;;;1.58;72.90
22930;BME280;11630;42.660;23.292;2024-01-30T07:13:08;67727.80;;;1.65;72.37
22930;BME280;11630;42.660;23.292;2024-01-30T07:15:37;67731.00;;;1.66;71.10
22930;BME280;11630;42.660;23.292;2024-01-30T07:18:08;67787.97;;;2.22;70.69
22930;BME280;11630;42.660;23.292;2024-01-30T07:20:39;67831.71;;;2.65;69.01
22930;BME280;11630;42.660;23.292;2024-01-30T07:23:17;67860.58;;;2.88;67.51
22930;BME280;11630;42.660;23.292;2024-01-30T07:25:46;67887.31;;;3.13;66.04
22930;BME280;11630;42.660;23.292;2024-01-30T07:28:19;67871.38;;;2.98;65.33
22930;BME280;11630;42.660;23.292;2024-01-30T07:30:50;67861.42;;;2.92;63.91
22930;BME280;11630;42.660;23.292;2024-01-30T07:33:23;67883.81;;;3.09;62.28
22930;BME280;11630;42.660;23.292;2024-01-30T07:35:55;67893.00;;;3.20;62.25
22930;BME280;11630;42.660;23.292;2024-01-30T07:38:25;67931.89;;;3.53;62.41
22930;BME280;11630;42.660;23.292;2024-01-30T07:40:56;67978.09;;;3.94;59.61
22930;BME280;11630;42.660;23.292;2024-01-30T07:43:27;67981.11;;;4.01;59.58
22930;BME280;11630;42.660;23.292;2024-01-30T07:45:58;68004.86;;;4.20;58.40
22930;BME280;11630;42.660;23.292;2024-01-30T07:48:29;68053.30;;;4.68;57.30
22930;BME280;11630;42.660;23.292;2024-01-30T07:51:01;68035.70;;;4.49;55.86
22930;BME280;11630;42.660;23.292;2024-01-30T07:53:33;68062.49;;;4.74;55.34
22930;BME280;11630;42.660;23.292;2024-01-30T07:56:02;68072.46;;;4.80;55.33
22930;BME280;11630;42.660;23.292;2024-01-30T07:58:32;67970.81;;;3.91;57.23
22930;BME280;11630;42.660;23.292;2024-01-30T08:01:03;67996.79;;;4.18;56.87
22930;BME280;11630;42.660;23.292;2024-01-30T08:03:34;68106.59;;;5.16;55.92
22930;BME280;11630;42.660;23.292;2024-01-30T08:06:04;68135.02;;;5.41;53.54
22930;BME280;11630;42.660;23.292;2024-01-30T08:08:35;68139.08;;;5.46;54.33
22930;BME280;11630;42.660;23.292;2024-01-30T08:11:05;68189.97;;;5.88;52.94
22930;BME280;11630;42.660;23.292;2024-01-30T08:13:38;68100.61;;;5.06;52.94
22930;BME280;11630;42.660;23.292;2024-01-30T08:16:09;68150.45;;;5.56;53.79
22930;BME280;11630;42.660;23.292;2024-01-30T08:18:40;68180.25;;;5.84;51.84
22930;BME280;11630;42.660;23.292;2024-01-30T08:21:11;68256.89;;;6.50;51.60
22930;BME280;11630;42.660;23.292;2024-01-30T08:23:43;68246.35;;;6.44;51.47
22930;BME280;11630;42.660;23.292;2024-01-30T08:26:14;68224.13;;;6.21;49.47
22930;BME280;11630;42.660;23.292;2024-01-30T08:28:45;68176.17;;;5.79;49.80
22930;BME280;11630;42.660;23.292;2024-01-30T08:31:16;68316.80;;;7.04;49.04
22930;BME280;11630;42.660;23.292;2024-01-30T08:33:47;68314.90;;;7.06;47.84
22930;BME280;11630;42.660;23.292;2024-01-30T08:36:18;68332.77;;;7.15;47.95
22930;BME280;11630;42.660;23.292;2024-01-30T08:38:49;68269.35;;;6.59;49.54
22930;BME280;11630;42.660;23.292;2024-01-30T08:41:19;68301.64;;;6.97;48.25
22930;BME280;11630;42.660;23.292;2024-01-30T08:43:50;68304.33;;;6.95;47.83
22930;BME280;11630;42.660;23.292;2024-01-30T08:46:20;68222.20;;;6.18;49.67
22930;BME280;11630;42.660;23.292;2024-01-30T08:48:54;68265.55;;;6.56;48.13
22930;BME280;11630;42.660;23.292;2024-01-30T08:51:25;68312.20;;;7.03;47.20
22930;BME280;11630;42.660;23.292;2024-01-30T08:53:56;68254.45;;;6.47;47.77
22930;BME280;11630;42.660;23.292;2024-01-30T08:56:27;68234.14;;;6.29;49.66
22930;BME280;11630;42.660;23.292;2024-01-30T08:58:57;68311.41;;;7.06;47.74
22930;BME280;11630;42.660;23.292;2024-01-30T09:01:28;68330.08;;;7.20;47.73
22930;BME280;11630;42.660;23.292;2024-01-30T09:04:00;68407.89;;;7.82;46.09
22930;BME280;11630;42.660;23.292;2024-01-30T09:06:30;68420.14;;;8.02;46.07
22930;BME280;11630;42.660;23.292;2024-01-30T09:09:01;68478.52;;;8.57;45.10
22930;BME280;11630;42.660;23.292;2024-01-30T09:11:32;68351.24;;;7.42;45.45
22930;BME280;11630;42.660;23.292;2024-01-30T09:14:03;68398.44;;;7.82;45.04
22930;BME280;11630;42.660;23.292;2024-01-30T09:16:34;68442.95;;;8.23;44.75
22930;BME280;11630;42.660;23.292;2024-01-30T09:19:06;68482.84;;;8.56;44.46
22930;BME280;11630;42.660;23.292;2024-01-30T09:21:37;68211.41;;;6.13;48.93
22930;BME280;11630;42.660;23.292;2024-01-30T09:24:08;68079.79;;;4.90;52.08
22930;BME280;11630;42.660;23.292;2024-01-30T09:26:39;68150.44;;;5.54;52.24
22930;BME280;11630;42.660;23.292;2024-01-30T09:29:10;68234.14;;;6.29;50.34
22930;BME280;11630;42.660;23.292;2024-01-30T09:31:47;68331.17;;;7.21;49.87
22930;BME280;11630;42.660;23.292;2024-01-30T09:34:17;68378.64;;;7.65;47.96
22930;BME280;11630;42.660;23.292;2024-01-30T09:36:47;68285.89;;;6.78;48.70
22930;BME280;11630;42.660;23.292;2024-01-30T09:39:17;68429.90;;;8.06;45.62
22930;BME280;11630;42.660;23.292;2024-01-30T09:41:59;68432.08;;;8.11;45.25
22930;BME280;11630;42.660;23.292;2024-01-30T09:44:24;68295.39;;;6.86;47.60
22930;BME280;11630;42.660;23.292;2024-01-30T09:46:56;68238.21;;;6.37;49.85
22930;BME280;11630;42.660;23.292;2024-01-30T09:49:34;68050.05;;;4.63;53.43
22930;BME280;11630;42.660;23.292;2024-01-30T09:52:05;68103.05;;;5.09;53.93
22930;BME280;11630;42.660;23.292;2024-01-30T09:54:38;68081.69;;;4.91;54.36
22930;BME280;11630;42.660;23.292;2024-01-30T09:57:08;67993.55;;;4.15;56.42
22930;BME280;11630;42.660;23.292;2024-01-30T09:59:39;67930.80;;;3.52;58.09
22930;BME280;11630;42.660;23.292;2024-01-30T10:02:13;67969.19;;;3.87;57.81
22930;BME280;11630;42.660;23.292;2024-01-30T10:04:49;67893.57;;;3.23;59.35
22930;BME280;11630;42.660;23.292;2024-01-30T10:07:20;67944.05;;;3.63;59.06
22930;BME280;11630;42.660;23.292;2024-01-30T10:09:50;67958.92;;;3.78;59.53
22930;BME280;11630;42.660;23.292;2024-01-30T10:12:21;67960.81;;;3.81;58.86
22930;BME280;11630;42.660;23.292;2024-01-30T10:14:53;67961.88;;;3.79;58.60
22930;BME280;11630;42.660;23.292;2024-01-30T10:17:25;67923.50;;;3.44;59.96
22930;BME280;11630;42.660;23.292;2024-01-30T10:19:56;67893.57;;;3.23;61.19
22930;BME280;11630;42.660;23.292;2024-01-30T10:22:27;67953.00;;;3.78;59.86
22930;BME280;11630;42.660;23.292;2024-01-30T10:24:58;68019.73;;;4.33;58.85
22930;BME280;11630;42.660;23.292;2024-01-30T10:27:30;67994.09;;;4.15;58.09
22930;BME280;11630;42.660;23.292;2024-01-30T10:30:01;68030.81;;;4.42;57.48
22930;BME280;11630;42.660;23.292;2024-01-30T10:32:32;68039.73;;;4.51;56.72
22930;BME280;11630;42.660;23.292;2024-01-30T10:35:03;68051.66;;;4.64;56.31
22930;BME280;11630;42.660;23.292;2024-01-30T10:37:33;68078.73;;;4.89;55.15
22930;BME280;11630;42.660;23.292;2024-01-30T10:40:05;68116.34;;;5.25;55.06
22930;BME280;11630;42.660;23.292;2024-01-30T10:42:36;68149.91;;;5.56;53.27
22930;BME280;11630;42.660;23.292;2024-01-30T10:45:09;68087.91;;;4.95;55.40
22930;BME280;11630;42.660;23.292;2024-01-30T10:47:49;67934.31;;;3.54;58.07
22930;BME280;11630;42.660;23.292;2024-01-30T10:50:17;67960.52;;;3.77;58.31
22930;BME280;11630;42.660;23.292;2024-01-30T10:52:48;68048.40;;;4.59;57.13
22930;BME280;11630;42.660;23.292;2024-01-30T10:55:20;67961.12;;;3.85;58.12
22930;BME280;11630;42.660;23.292;2024-01-30T10:57:51;67949.95;;;3.66;58.71
22930;BME280;11630;42.660;23.292;2024-01-30T11:00:23;67971.63;;;3.91;58.21
22930;BME280;11630;42.660;23.292;2024-01-30T11:02:54;68106.33;;;5.15;55.68
22930;BME280;11630;42.660;23.292;2024-01-30T11:05:25;68033.82;;;4.48;56.14
22930;BME280;11630;42.660;23.292;2024-01-30T11:07:57;68106.61;;;5.19;55.83
22930;BME280;11630;42.660;23.292;2024-01-30T11:10:28;68184.28;;;5.81;54.18
22930;BME280;11630;42.660;23.292;2024-01-30T11:12:59;68137.97;;;5.40;54.92
22930;BME280;11630;42.660;23.292;2024-01-30T11:15:31;68136.38;;;5.43;55.04
22930;BME280;11630;42.660;23.292;2024-01-30T11:18:02;68121.48;;;5.29;54.02
22930;BME280;11630;42.660;23.292;2024-01-30T11:20:33;68052.75;;;4.65;55.44
22930;BME280;11630;42.660;23.292;2024-01-30T11:23:06;67979.42;;;3.92;57.36
22930;BME280;11630;42.660;23.292;2024-01-30T11:25:37;68025.18;;;4.43;57.32
22930;BME280;11630;42.660;23.292;2024-01-30T11:28:12;68098.45;;;5.06;56.01
22930;BME280;11630;42.660;23.292;2024-01-30T11:30:40;68170.77;;;5.76;54.94
22930;BME280;11630;42.660;23.292;2024-01-30T11:33:11;68188.92;;;5.92;53.21
22930;BME280;11630;42.660;23.292;2024-01-30T11:35:45;68165.86;;;5.69;53.64
22930;BME280;11630;42.660;23.292;2024-01-30T11:38:16;68133.67;;;5.41;53.94
22930;BME280;11630;42.660;23.292;2024-01-30T11:40:48;68020.81;;;4.34;57.05
22930;BME280;11630;42.660;23.292;2024-01-30T11:43:20;67941.36;;;3.63;57.98
22930;BME280;11630;42.660;23.292;2024-01-30T11:45:51;67912.99;;;3.38;59.66
22930;BME280;11630;42.660;23.292;2024-01-30T11:48:21;67974.84;;;3.91;58.65
22930;BME280;11630;42.660;23.292;2024-01-30T11:50:52;68013.25;;;4.29;57.78
22930;BME280;11630;42.660;23.292;2024-01-30T11:53:23;68042.73;;;4.55;57.01
22930;BME280;11630;42.660;23.292;2024-01-30T11:55:55;68074.13;;;4.86;57.15
22930;BME280;11630;42.660;23.292;2024-01-30T11:58:28;68079.24;;;4.87;56.71
22930;BME280;11630;42.660;23.292;2024-01-30T12:00:59;68027.86;;;4.43;57.41
22930;BME280;11630;42.660;23.292;2024-01-30T12:03:30;68053.30;;;4.68;56.65
22930;BME280;11630;42.660;23.292;2024-01-30T12:06:02;67973.81;;;3.95;57.85
22930;BME280;11630;42.660;23.292;2024-01-30T12:08:32;68015.94;;;4.29;57.96
22930;BME280;11630;42.660;23.292;2024-01-30T12:11:06;67995.43;;;4.15;57.64
22930;BME280;11630;42.660;23.292;2024-01-30T12:13:35;68000.83;;;4.20;58.10
22930;BME280;11630;42.660;23.292;2024-01-30T12:16:05;68010.58;;;4.32;57.98
22930;BME280;11630;42.660;23.292;2024-01-30T12:18:36;67963.49;;;3.81;58.98
22930;BME280;11630;42.660;23.292;2024-01-30T12:21:07;68028.95;;;4.44;58.14
22930;BME280;11630;42.660;23.292;2024-01-30T12:23:37;68086.30;;;4.96;56.39
22930;BME280;11630;42.660;23.292;2024-01-30T12:26:07;68074.38;;;4.83;56.29
22930;BME280;11630;42.660;23.292;2024-01-30T12:28:47;68016.50;;;4.30;57.97
22930;BME280;11630;42.660;23.292;2024-01-30T12:31:10;67995.98;;;4.16;58.18
22930;BME280;11630;42.660;23.292;2024-01-30T12:33:41;68008.11;;;4.23;58.59
22930;BME280;11630;42.660;23.292;2024-01-30T12:36:15;67986.77;;;4.05;58.11
22930;BME280;11630;42.660;23.292;2024-01-30T12:38:44;68019.18;;;4.30;57.85
22930;BME280;11630;42.660;23.292;2024-01-30T12:41:15;68035.47;;;4.54;56.82
22930;BME280;11630;42.660;23.292;2024-01-30T12:43:46;68049.50;;;4.62;57.35
22930;BME280;11630;42.660;23.292;2024-01-30T12:46:17;67997.05;;;4.17;58.54
22930;BME280;11630;42.660;23.292;2024-01-30T12:48:47;67971.88;;;3.87;58.71
22930;BME280;11630;42.660;23.292;2024-01-30T12:51:18;68029.20;;;4.43;58.20
22930;BME280;11630;42.660;23.292;2024-01-30T12:53:49;68094.11;;;4.97;84.20
22930;BME280;11630;42.660;23.292;2024-01-30T12:56:18;68270.98;;;6.63;100.00
22930;BME280;11630;42.660;23.292;2024-01-30T12:58:51;68340.41;;;7.29;97.36
22930;BME280;11630;42.660;23.292;2024-01-30T13:01:25;68373.75;;;7.61;97.79
22930;BME280;11630;42.660;23.292;2024-01-30T13:03:55;68423.66;;;8.04;80.00
22930;BME280;11630;42.660;23.292;2024-01-30T13:06:26;68256.09;;;6.53;55.53
22930;BME280;11630;42.660;23.292;2024-01-30T13:08:57;68166.16;;;5.71;56.14
22930;BME280;11630;42.660;23.292;2024-01-30T13:11:28;68023.81;;;4.38;58.81
22930;BME280;11630;42.660;23.292;2024-01-30T13:13:59;68027.33;;;4.42;58.64
22930;BME280;11630;42.660;23.292;2024-01-30T13:16:29;68018.95;;;4.36;58.90
22930;BME280;11630;42.660;23.292;2024-01-30T13:19:00;67993.81;;;4.14;61.40